createdAt,value
2019-03-01T00:02:28.228Z,49.90
2019-03-01T00:05:34.515Z,47.67
2019-03-01T00:08:12.513Z,56.83
2019-03-01T00:11:15.587Z,50.47
2019-03-01T00:14:10.411Z,50.93
2019-03-01T00:16:49.065Z,39.30
2019-03-01T00:19:31.019Z,43.83
2019-03-01T00:22:20.511Z,29.93
2019-03-01T00:25:22.260Z,41.33
2019-03-01T00:28:16.525Z,27.47
2019-03-01T00:31:04.270Z,43.63
2019-03-01T00:33:39.599Z,40.80
2019-03-01T00:36:34.771Z,35.80
2019-03-01T00:39:22.523Z,33.03
2019-03-01T00:42:17.868Z,29.47
2019-03-01T00:44:48.851Z,49.20
2019-03-01T00:47:18.822Z,36.13
2019-03-01T00:49:48.536Z,44.10
2019-03-01T00:52:18.340Z,47.80
2019-03-01T00:54:48.060Z,49.73
2019-03-01T00:57:17.764Z,45.10
2019-03-01T00:59:47.547Z,45.97
2019-03-01T01:02:17.287Z,43.53
2019-03-01T01:04:47.092Z,45.97
2019-03-01T01:07:16.874Z,30.37
2019-03-01T01:09:46.522Z,27.57
2019-03-01T01:12:16.247Z,42.10
2019-03-01T01:14:45.939Z,31.50
2019-03-01T01:17:15.605Z,33.23
2019-03-01T01:19:45.252Z,49.03
2019-03-01T01:22:14.938Z,48.43
2019-03-01T01:24:44.714Z,44.77
2019-03-01T01:27:14.399Z,45.43
2019-03-01T01:29:44.392Z,49.57
2019-03-01T01:32:14.019Z,46.17
2019-03-01T01:34:44.121Z,50.17
2019-03-01T01:37:13.746Z,53.77
2019-03-01T01:39:43.384Z,52.47
2019-03-01T01:42:13.134Z,56.87
2019-03-01T01:44:42.918Z,58.20
2019-03-01T01:47:12.670Z,45.53
2019-03-01T01:49:42.406Z,63.63
2019-03-01T01:52:12.392Z,65.33
2019-03-01T01:54:42.081Z,57.57
2019-03-01T01:57:11.921Z,59.47
2019-03-01T01:59:41.619Z,55.47
2019-03-01T02:02:11.505Z,60.47
2019-03-01T02:04:41.254Z,56.80
2019-03-01T02:07:10.978Z,59.63
2019-03-01T02:09:41.049Z,57.07
2019-03-01T02:12:11.206Z,43.20
2019-03-01T02:14:40.989Z,34.47
2019-03-01T02:17:10.765Z,45.90
2019-03-01T02:19:40.850Z,44.13
2019-03-01T02:22:10.623Z,53.23
2019-03-01T02:24:40.647Z,59.33
2019-03-01T02:27:25.545Z,45.70
2019-03-01T02:29:55.449Z,48.60
2019-03-01T02:32:34.127Z,49.50
2019-03-01T02:35:04.152Z,42.03
2019-03-01T02:37:34.050Z,50.37
2019-03-01T02:40:05.621Z,56.63
2019-03-01T02:42:35.401Z,54.87
2019-03-01T02:45:08.501Z,44.87
2019-03-01T02:47:38.372Z,48.37
2019-03-01T02:50:10.535Z,46.00
2019-03-01T02:52:40.397Z,50.93
2019-03-01T02:55:15.032Z,51.87
2019-03-01T02:57:44.901Z,57.93
2019-03-01T03:00:26.701Z,50.33
2019-03-01T03:02:56.585Z,48.07
2019-03-01T03:05:26.440Z,44.43
2019-03-01T03:07:57.920Z,44.30
2019-03-01T03:10:27.744Z,58.87
2019-03-01T03:13:02.970Z,52.13
2019-03-01T03:15:37.602Z,54.77
2019-03-01T03:18:07.452Z,54.57
2019-03-01T03:20:37.384Z,53.53
2019-03-01T03:23:07.200Z,54.20
2019-03-01T03:25:37.022Z,53.37
2019-03-01T03:28:06.719Z,58.67
2019-03-01T03:30:36.826Z,53.93
2019-03-01T03:33:06.652Z,54.40
2019-03-01T03:35:36.431Z,47.40
2019-03-01T03:38:06.215Z,58.23
2019-03-01T03:40:35.992Z,51.97
2019-03-01T03:43:05.746Z,56.60
2019-03-01T03:45:35.426Z,54.97
2019-03-01T03:48:05.228Z,48.03
2019-03-01T03:50:34.904Z,54.10
2019-03-01T03:53:04.584Z,47.63
2019-03-01T03:55:34.416Z,57.43
2019-03-01T03:58:04.266Z,55.47
2019-03-01T04:00:34.048Z,54.63
2019-03-01T04:03:03.827Z,54.67
2019-03-01T04:05:33.563Z,58.63
2019-03-01T04:08:03.373Z,58.03
2019-03-01T04:10:33.093Z,57.03
2019-03-01T04:13:02.745Z,58.63
2019-03-01T04:15:32.426Z,72.93
2019-03-01T04:18:02.136Z,79.10
2019-03-01T04:20:31.778Z,65.93
2019-03-01T04:23:01.521Z,70.50
2019-03-01T04:25:31.224Z,49.87
2019-03-01T04:28:00.982Z,65.30
2019-03-01T04:30:30.764Z,60.20
2019-03-01T04:33:00.421Z,72.93
2019-03-01T04:35:30.267Z,67.70
2019-03-01T04:37:59.913Z,39.80
2019-03-01T04:40:29.767Z,48.00
2019-03-01T04:42:59.477Z,59.23
2019-03-01T04:45:29.543Z,61.37
2019-03-01T04:47:59.171Z,50.80
2019-03-01T04:50:28.807Z,61.03
2019-03-01T04:52:58.563Z,42.17
2019-03-01T04:55:28.424Z,52.43
2019-03-01T04:57:58.084Z,61.57
2019-03-01T05:00:27.869Z,41.63
2019-03-01T05:02:58.084Z,33.30
2019-03-01T05:05:28.048Z,50.23
2019-03-01T05:07:57.749Z,47.23
2019-03-01T05:10:27.538Z,53.77
2019-03-01T05:12:57.228Z,51.97
2019-03-01T05:15:27.010Z,31.10
2019-03-01T05:17:56.745Z,35.10
2019-03-01T05:20:26.370Z,38.23
2019-03-01T05:22:56.081Z,35.53
2019-03-01T05:25:25.861Z,45.87
2019-03-01T05:27:55.497Z,45.53
2019-03-01T05:30:25.554Z,53.03
2019-03-01T05:32:55.171Z,54.00
2019-03-01T05:35:25.262Z,60.10
2019-03-01T05:37:54.969Z,59.67
2019-03-01T05:40:24.751Z,54.10
2019-03-01T05:42:54.761Z,54.80
2019-03-01T05:45:27.065Z,53.87
2019-03-01T05:47:56.728Z,50.03
2019-03-01T05:50:26.579Z,56.87
2019-03-01T05:52:56.239Z,62.40
2019-03-01T05:55:26.073Z,53.97
2019-03-01T05:58:18.185Z,63.27
2019-03-01T06:00:48.534Z,62.83
2019-03-01T06:03:41.158Z,76.20
2019-03-01T06:06:13.873Z,68.53
2019-03-01T06:08:58.468Z,66.43
2019-03-01T06:11:31.176Z,72.93
2019-03-01T06:14:06.761Z,69.80
2019-03-01T06:16:57.494Z,62.27
2019-03-01T06:19:36.169Z,71.10
2019-03-01T06:22:34.460Z,72.77
2019-03-01T06:25:13.120Z,71.20
2019-03-01T06:27:55.076Z,81.90
2019-03-01T06:30:51.439Z,67.90
2019-03-01T06:33:35.623Z,68.17
2019-03-01T06:36:20.757Z,70.30
2019-03-01T06:39:18.937Z,76.20
2019-03-01T06:42:04.566Z,58.10
2019-03-01T06:44:53.924Z,79.63
2019-03-01T06:47:36.142Z,79.27
2019-03-01T06:50:13.074Z,65.70
2019-03-01T06:52:42.994Z,79.27
2019-03-01T06:55:27.488Z,87.53
2019-03-01T06:57:57.310Z,81.07
2019-03-01T07:00:27.785Z,78.53
2019-03-01T07:03:01.591Z,98.23
2019-03-01T07:05:31.351Z,104.17
2019-03-01T07:08:01.055Z,98.90
2019-03-01T07:10:30.680Z,86.27
2019-03-01T07:13:00.306Z,106.73
2019-03-01T07:15:30.126Z,98.43
2019-03-01T07:17:59.863Z,111.27
2019-03-01T07:20:29.665Z,92.87
2019-03-01T07:22:59.303Z,102.83
2019-03-01T07:25:29.115Z,101.53
2019-03-01T07:27:58.733Z,98.73
2019-03-01T07:30:28.390Z,108.33
2019-03-01T07:32:58.020Z,93.77
2019-03-01T07:35:27.749Z,101.37
2019-03-01T07:37:57.373Z,102.03
2019-03-01T07:40:27.090Z,120.07
2019-03-01T07:42:57.057Z,98.77
2019-03-01T07:45:26.754Z,78.83
2019-03-01T07:47:56.467Z,92.53
2019-03-01T07:50:26.206Z,108.27
2019-03-01T07:52:55.954Z,110.83
2019-03-01T07:55:28.386Z,105.40
2019-03-01T07:57:57.002Z,120.87
2019-03-01T08:00:26.836Z,107.40
2019-03-01T08:02:56.883Z,110.33
2019-03-01T08:05:26.743Z,114.07
2019-03-01T08:07:59.787Z,113.73
2019-03-01T08:10:27.984Z,112.80
2019-03-01T08:12:57.703Z,94.63
2019-03-01T08:15:27.438Z,104.60
2019-03-01T08:17:57.250Z,106.93
2019-03-01T08:20:30.288Z,91.93
2019-03-01T08:22:59.923Z,69.67
2019-03-01T08:25:29.811Z,68.43
2019-03-01T08:27:59.524Z,72.97
2019-03-01T08:30:29.341Z,85.63
2019-03-01T08:32:59.189Z,92.93
2019-03-01T08:35:31.975Z,116.03
2019-03-01T08:38:00.449Z,73.73
2019-03-01T08:40:30.357Z,112.77
2019-03-01T08:43:00.161Z,66.87
2019-03-01T08:45:32.992Z,124.90
2019-03-01T08:48:01.679Z,105.43
2019-03-01T08:50:31.705Z,108.17
2019-03-01T08:53:01.509Z,78.50
2019-03-01T08:55:31.686Z,112.50
2019-03-01T08:58:04.638Z,76.00
2019-03-01T09:00:41.375Z,62.03
2019-03-01T09:03:22.362Z,96.87
2019-03-01T09:05:48.171Z,75.50
2019-03-01T09:08:19.348Z,97.73
2019-03-01T09:10:49.760Z,80.40
2019-03-01T09:13:19.584Z,92.83
2019-03-01T09:15:49.617Z,114.70
2019-03-01T09:18:20.285Z,114.87
2019-03-01T09:20:50.056Z,83.27
2019-03-01T09:23:25.123Z,63.33
2019-03-01T09:25:51.064Z,76.83
2019-03-01T09:28:21.213Z,83.83
2019-03-01T09:30:50.901Z,103.47
2019-03-01T09:33:21.499Z,87.17
2019-03-01T09:35:59.661Z,109.70
2019-03-01T09:38:29.493Z,63.60
2019-03-01T09:41:01.209Z,81.50
2019-03-01T09:43:30.544Z,78.13
2019-03-01T09:46:00.301Z,62.50
2019-03-01T09:48:30.463Z,72.43
2019-03-01T09:51:00.274Z,80.07
2019-03-01T09:53:30.504Z,77.87
2019-03-01T09:56:01.855Z,87.00
2019-03-01T09:58:31.571Z,98.83
2019-03-01T10:01:10.408Z,86.33
2019-03-01T10:03:40.142Z,110.33
2019-03-01T10:06:10.041Z,68.10
2019-03-01T10:08:39.739Z,103.43
2019-03-01T10:11:09.569Z,82.27
2019-03-01T10:13:39.514Z,109.30
2019-03-01T10:16:09.319Z,105.80
2019-03-01T10:18:39.088Z,76.43
2019-03-01T10:21:08.921Z,64.57
2019-03-01T10:23:38.663Z,62.67
2019-03-01T10:26:08.471Z,64.73
2019-03-01T10:28:38.237Z,98.43
2019-03-01T10:31:08.030Z,85.80
2019-03-01T10:33:37.847Z,94.10
2019-03-01T10:36:07.672Z,94.47
2019-03-01T10:38:37.565Z,119.17
2019-03-01T10:41:07.426Z,113.03
2019-03-01T10:43:37.191Z,112.27
2019-03-01T10:46:06.956Z,121.87
2019-03-01T10:48:36.806Z,116.50
2019-03-01T10:51:06.683Z,59.93
2019-03-01T10:53:36.491Z,125.33
2019-03-01T10:56:06.376Z,105.10
2019-03-01T10:58:36.198Z,115.47
2019-03-01T11:01:06.014Z,113.87
2019-03-01T11:03:35.797Z,63.50
2019-03-01T11:06:05.686Z,69.83
2019-03-01T11:08:35.444Z,66.90
2019-03-01T11:11:05.892Z,99.70
2019-03-01T11:13:35.645Z,97.03
2019-03-01T11:16:05.426Z,74.10
2019-03-01T11:18:35.275Z,101.90
2019-03-01T11:21:05.266Z,74.37
2019-03-01T11:23:35.195Z,96.20
2019-03-01T11:26:04.895Z,110.83
2019-03-01T11:28:35.174Z,102.43
2019-03-01T11:31:05.047Z,79.93
2019-03-01T11:33:35.120Z,117.83
2019-03-01T11:36:05.623Z,82.43
2019-03-01T11:38:35.612Z,75.70
2019-03-01T11:41:05.822Z,66.80
2019-03-01T11:43:35.671Z,54.50
2019-03-01T11:46:07.224Z,72.90
2019-03-01T11:48:37.017Z,88.30
2019-03-01T11:51:06.918Z,78.83
2019-03-01T11:53:56.067Z,61.57
2019-03-01T11:56:25.859Z,79.47
2019-03-01T11:58:55.682Z,74.33
2019-03-01T12:01:25.579Z,83.40
2019-03-01T12:03:55.470Z,83.83
2019-03-01T12:06:25.268Z,78.47
2019-03-01T12:08:55.095Z,94.40
2019-03-01T12:11:25.293Z,65.07
2019-03-01T12:13:55.126Z,55.20
2019-03-01T12:16:25.866Z,78.23
2019-03-01T12:18:56.022Z,83.27
2019-03-01T12:21:26.541Z,77.57
2019-03-01T12:23:56.501Z,64.20
2019-03-01T12:26:26.490Z,58.23
2019-03-01T12:28:57.346Z,54.20
2019-03-01T12:31:27.642Z,81.30
2019-03-01T12:33:57.971Z,70.53
2019-03-01T12:36:28.449Z,73.60
2019-03-01T12:38:58.773Z,63.67
2019-03-01T12:41:28.623Z,60.70
2019-03-01T12:43:59.447Z,76.10
2019-03-01T12:46:29.192Z,71.03
2019-03-01T12:48:59.858Z,60.23
2019-03-01T12:51:30.355Z,44.07
2019-03-01T12:54:00.608Z,58.37
2019-03-01T12:56:30.547Z,61.13
2019-03-01T12:59:00.470Z,67.70
2019-03-01T13:01:30.242Z,57.33
2019-03-01T13:04:00.335Z,58.33
2019-03-01T13:06:30.490Z,59.93
2019-03-01T13:09:00.199Z,56.63
2019-03-01T13:11:29.930Z,56.33
2019-03-01T13:13:59.687Z,36.13
2019-03-01T13:16:29.827Z,43.30
2019-03-01T13:18:59.531Z,34.53
2019-03-01T13:21:29.332Z,30.20
2019-03-01T13:23:59.095Z,36.13
2019-03-01T13:26:28.915Z,33.33
2019-03-01T13:28:58.624Z,28.00
2019-03-01T13:31:28.779Z,24.70
2019-03-01T13:33:58.484Z,34.83
2019-03-01T13:36:28.263Z,26.17
2019-03-01T13:38:58.288Z,30.90
2019-03-01T13:41:27.909Z,21.33
2019-03-01T13:44:00.383Z,31.03
2019-03-01T13:46:29.969Z,24.53
2019-03-01T13:49:00.804Z,21.67
2019-03-01T13:51:30.543Z,25.63
2019-03-01T13:54:00.240Z,20.27
2019-03-01T13:56:32.815Z,29.63
2019-03-01T13:59:03.115Z,25.90
2019-03-01T14:01:33.112Z,21.77
2019-03-01T14:04:03.244Z,23.63
2019-03-01T14:06:33.575Z,21.83
2019-03-01T14:09:04.743Z,25.70
2019-03-01T14:11:34.513Z,26.50
2019-03-01T14:14:04.466Z,20.93
2019-03-01T14:16:34.382Z,15.20
2019-03-01T14:19:04.339Z,14.33
2019-03-01T14:21:34.073Z,8.27
2019-03-01T14:24:03.902Z,10.90
2019-03-01T14:26:33.733Z,18.20
2019-03-01T14:29:03.602Z,19.80
2019-03-01T14:31:33.804Z,20.63
2019-03-01T14:34:03.822Z,10.77
2019-03-01T14:36:33.630Z,24.73
2019-03-01T14:39:06.848Z,17.47
2019-03-01T14:41:35.419Z,16.50
2019-03-01T14:44:05.203Z,16.40
2019-03-01T14:46:34.896Z,20.13
2019-03-01T14:49:04.610Z,14.97
2019-03-01T14:51:34.242Z,20.30
2019-03-01T14:54:07.006Z,11.13
2019-03-01T14:56:37.537Z,13.30
2019-03-01T14:59:15.980Z,17.33
2019-03-01T15:02:21.985Z,16.87
2019-03-01T15:04:51.762Z,13.43
2019-03-01T15:07:22.474Z,15.70
2019-03-01T15:09:53.367Z,13.30
2019-03-01T15:12:23.602Z,13.63
2019-03-01T15:14:53.680Z,12.43
2019-03-01T15:17:23.870Z,13.30
2019-03-01T15:19:53.694Z,10.47
2019-03-01T15:22:23.536Z,12.30
2019-03-01T15:24:53.182Z,13.33
2019-03-01T15:27:22.970Z,7.00
2019-03-01T15:29:52.604Z,14.70
2019-03-01T15:32:22.436Z,7.03
2019-03-01T15:34:52.150Z,11.17
2019-03-01T15:37:21.848Z,10.03
2019-03-01T15:39:54.259Z,10.30
2019-03-01T15:42:23.065Z,8.47
2019-03-01T15:44:52.816Z,11.63
2019-03-01T15:47:23.892Z,12.93
2019-03-01T15:50:13.616Z,15.13
2019-03-01T15:52:45.588Z,10.87
2019-03-01T15:55:14.858Z,10.43
2019-03-01T15:57:44.544Z,11.83
2019-03-01T16:00:19.033Z,14.80
2019-03-01T16:02:50.081Z,16.10
2019-03-01T16:05:20.101Z,11.37
2019-03-01T16:07:50.012Z,5.33
2019-03-01T16:10:20.528Z,11.67
2019-03-01T16:12:50.267Z,14.73
2019-03-01T16:15:19.978Z,5.90
2019-03-01T16:17:49.723Z,11.43
2019-03-01T16:20:20.491Z,6.10
2019-03-01T16:22:51.098Z,7.77
2019-03-01T16:25:21.571Z,9.90
2019-03-01T16:27:54.278Z,7.73
2019-03-01T16:30:22.758Z,5.63
2019-03-01T16:32:52.519Z,13.30
2019-03-01T16:35:22.961Z,8.90
2019-03-01T16:40:49.004Z,6.67
2019-03-01T16:43:18.629Z,6.17
2019-03-01T16:45:48.327Z,5.07
2019-03-01T16:48:17.968Z,14.33
2019-03-01T16:50:47.672Z,11.63
2019-03-01T16:53:17.395Z,10.63
2019-03-01T16:55:49.255Z,6.93
2019-03-01T16:58:18.726Z,6.30
2019-03-01T17:00:50.714Z,14.20
2019-03-01T17:03:19.782Z,15.00
2019-03-01T17:05:49.670Z,13.90
2019-03-01T17:08:19.366Z,15.00
2019-03-01T17:10:49.083Z,17.70
2019-03-01T17:13:18.732Z,11.73
2019-03-01T17:15:49.221Z,11.23
2019-03-01T17:18:19.059Z,15.13
2019-03-01T17:20:48.718Z,15.53
2019-03-01T17:23:18.784Z,17.20
2019-03-01T17:25:48.425Z,17.27
2019-03-01T17:28:23.567Z,11.77
2019-03-01T17:30:50.802Z,14.83
2019-03-01T17:33:21.753Z,16.03
2019-03-01T17:35:51.546Z,16.00
2019-03-01T17:38:21.275Z,10.97
2019-03-01T17:40:50.967Z,20.63
2019-03-01T17:43:20.613Z,20.23
2019-03-01T17:45:50.227Z,16.07
2019-03-01T17:48:22.195Z,17.50
2019-03-01T17:50:51.658Z,20.47
2019-03-01T17:53:21.350Z,15.23
2019-03-01T17:55:51.028Z,15.37
2019-03-01T17:58:20.775Z,9.20
2019-03-01T18:00:50.839Z,16.53
2019-03-01T18:03:20.466Z,13.70
2019-03-01T18:05:50.393Z,24.83
2019-03-01T18:08:20.121Z,16.40
2019-03-01T18:10:49.952Z,18.87
2019-03-01T18:13:19.666Z,13.43
2019-03-01T18:15:50.018Z,13.90
2019-03-01T18:18:19.771Z,16.33
2019-03-01T18:20:49.471Z,12.97
2019-03-01T18:23:19.095Z,13.23
2019-03-01T18:25:49.095Z,14.33
2019-03-01T18:28:18.630Z,11.43
2019-03-01T18:30:48.415Z,12.27
2019-03-01T18:33:21.166Z,11.43
2019-03-01T18:35:52.444Z,13.70
2019-03-01T18:38:21.247Z,16.70
2019-03-01T18:40:51.754Z,8.57
2019-03-01T18:43:22.200Z,9.77
2019-03-01T18:45:51.987Z,9.20
2019-03-01T18:48:21.660Z,9.33
2019-03-01T18:50:51.382Z,8.73
2019-03-01T18:53:21.152Z,10.70
2019-03-01T18:55:53.041Z,5.00
2019-03-01T18:58:22.547Z,8.53
2019-03-01T19:00:53.932Z,8.67
2019-03-01T19:03:23.645Z,9.80
2019-03-01T19:05:53.663Z,6.37
2019-03-01T19:08:23.498Z,6.67
2019-03-01T19:11:12.553Z,8.33
2019-03-01T19:13:42.335Z,8.70
2019-03-01T19:16:12.097Z,11.20
2019-03-01T19:18:42.269Z,5.90
2019-03-01T19:21:13.946Z,10.53
2019-03-01T19:23:43.287Z,4.87
2019-03-01T19:26:13.065Z,11.73
2019-03-01T19:28:42.796Z,9.40
2019-03-01T19:31:12.585Z,16.67
2019-03-01T19:33:42.369Z,11.50
2019-03-01T19:36:12.006Z,14.33
2019-03-01T19:38:41.843Z,18.23
2019-03-01T19:41:11.570Z,10.40
2019-03-01T19:43:41.685Z,10.63
2019-03-01T19:46:15.592Z,11.57
2019-03-01T19:48:44.025Z,9.90
2019-03-01T19:51:13.750Z,8.63
2019-03-01T19:53:43.363Z,11.37
2019-03-01T19:56:13.076Z,10.70
2019-03-01T19:58:44.204Z,9.33
2019-03-01T20:01:17.957Z,11.60
2019-03-01T20:03:46.295Z,12.77
2019-03-01T20:06:35.528Z,8.23
2019-03-01T20:09:06.195Z,11.10
2019-03-01T20:11:36.383Z,14.60
2019-03-01T20:14:06.359Z,9.00
2019-03-01T20:16:36.516Z,9.63
2019-03-01T20:19:09.279Z,12.10
2019-03-01T20:21:44.082Z,8.17
2019-03-01T20:24:15.366Z,9.90
2019-03-01T20:26:47.337Z,13.70
2019-03-01T20:29:20.494Z,6.17
2019-03-01T20:31:52.650Z,16.17
2019-03-01T20:34:24.674Z,8.40
2019-03-01T20:36:55.566Z,6.63
2019-03-01T20:39:25.288Z,7.30
2019-03-01T20:41:55.004Z,15.00
2019-03-01T20:44:24.892Z,8.90
2019-03-01T20:46:55.007Z,6.37
2019-03-01T20:49:24.980Z,10.00
2019-03-01T20:51:54.764Z,8.40
2019-03-01T20:54:25.712Z,10.73
2019-03-01T20:56:57.475Z,11.90
2019-03-01T20:59:27.485Z,13.03
2019-03-01T21:01:57.610Z,12.23
2019-03-01T21:04:27.478Z,15.03
2019-03-01T21:06:57.236Z,8.30
2019-03-01T21:09:27.215Z,5.43
2019-03-01T21:12:16.562Z,9.17
2019-03-01T21:15:01.677Z,11.00
2019-03-01T21:17:31.173Z,6.90
2019-03-01T21:20:00.925Z,6.30
2019-03-01T21:22:30.991Z,3.37
2019-03-01T21:25:03.250Z,8.80
2019-03-01T21:27:32.224Z,10.17
2019-03-01T21:30:02.263Z,7.63
2019-03-01T21:32:32.094Z,11.13
2019-03-01T21:35:03.385Z,8.33
2019-03-01T21:37:34.720Z,8.70
2019-03-01T21:40:07.674Z,8.90
2019-03-01T21:42:37.586Z,9.87
2019-03-01T21:45:10.423Z,8.17
2019-03-01T21:47:40.325Z,5.43
2019-03-01T21:50:10.270Z,4.87
2019-03-01T21:52:40.273Z,9.80
2019-03-01T21:55:13.094Z,6.20
2019-03-01T21:57:44.901Z,9.27
2019-03-01T22:00:17.826Z,11.23
2019-03-01T22:02:48.832Z,8.20
2019-03-01T22:05:18.996Z,7.93
2019-03-01T22:07:48.836Z,11.57
2019-03-01T22:10:18.682Z,10.83
2019-03-01T22:12:48.448Z,7.57
2019-03-01T22:15:41.660Z,8.10
2019-03-01T22:18:11.542Z,9.93
2019-03-01T22:20:41.650Z,8.07
2019-03-01T22:23:15.685Z,6.33
2019-03-01T22:25:44.419Z,10.33
2019-03-01T22:28:14.341Z,11.10
2019-03-01T22:30:44.002Z,8.60
2019-03-01T22:33:13.598Z,17.37
2019-03-01T22:35:43.676Z,13.20
2019-03-01T22:38:14.650Z,12.37
2019-03-01T22:40:44.309Z,13.90
2019-03-01T22:43:13.927Z,5.57
2019-03-01T22:45:45.483Z,12.20
2019-03-01T22:48:14.914Z,9.40
2019-03-01T22:50:44.902Z,10.43
2019-03-01T22:53:14.548Z,10.30
2019-03-01T22:55:44.328Z,8.10
2019-03-01T22:58:15.056Z,12.03
2019-03-01T23:01:01.704Z,6.93
2019-03-01T23:03:32.386Z,10.23
2019-03-01T23:06:02.672Z,9.93
2019-03-01T23:08:35.474Z,7.10
2019-03-01T23:11:04.138Z,10.23
2019-03-01T23:13:34.055Z,11.33
2019-03-01T23:16:15.902Z,8.17
2019-03-01T23:18:44.937Z,10.20
2019-03-01T23:21:14.730Z,6.90
2019-03-01T23:23:44.676Z,4.83
2019-03-01T23:26:14.441Z,6.27
2019-03-01T23:28:44.648Z,8.47
2019-03-01T23:31:18.352Z,9.70
2019-03-01T23:33:48.318Z,8.70
2019-03-01T23:36:18.162Z,12.20
2019-03-01T23:38:50.101Z,10.50
2019-03-01T23:41:20.404Z,13.10
2019-03-01T23:43:50.029Z,6.73
2019-03-01T23:46:20.026Z,9.00
2019-03-01T23:48:49.792Z,11.43
2019-03-01T23:51:19.556Z,13.77
2019-03-01T23:53:49.428Z,12.60
2019-03-01T23:56:19.116Z,7.53
2019-03-01T23:58:51.833Z,9.73
